createdAt,value
2017-03-01T00:00:44.012Z,96.36
2017-03-01T00:01:44.032Z,96.36
2017-03-01T00:02:44.048Z,96.74
2017-03-01T00:03:44.073Z,96.36
2017-03-01T00:04:44.088Z,96.45
2017-03-01T00:05:44.107Z,95.89
2017-03-01T00:06:58.654Z,96.26
2017-03-01T00:07:44.144Z,96.55
2017-03-01T00:08:44.162Z,96.36
2017-03-01T00:10:44.201Z,96.74
2017-03-01T00:13:44.264Z,96.74
2017-03-01T00:14:44.279Z,97.41
2017-03-01T00:15:44.300Z,97.22
2017-03-01T00:16:44.312Z,97.12
2017-03-01T00:18:44.351Z,97.5
2017-03-01T00:19:44.374Z,97.69
2017-03-01T00:20:44.389Z,97.5
2017-03-01T00:21:44.412Z,96.93
2017-03-01T00:22:44.425Z,97.31
2017-03-01T00:23:44.448Z,96.74
2017-03-01T00:24:44.463Z,96.74
2017-03-01T00:25:44.482Z,97.31
2017-03-01T00:26:44.516Z,96.74
2017-03-01T00:27:44.520Z,96.74
2017-03-01T00:28:44.539Z,96.83
2017-03-01T00:29:44.557Z,96.74
2017-03-01T00:30:44.576Z,97.6
2017-03-01T00:31:44.596Z,97.41
2017-03-01T00:32:44.614Z,97.22
2017-03-01T00:33:44.635Z,97.02
2017-03-01T00:34:44.656Z,97.02
2017-03-01T00:35:44.677Z,97.22
2017-03-01T00:36:44.693Z,97.02
2017-03-01T00:37:44.708Z,97.22
2017-03-01T00:38:59.255Z,96.74
2017-03-01T00:39:44.751Z,96.83
2017-03-01T00:40:44.773Z,96.45
2017-03-01T00:41:44.783Z,96.36
2017-03-01T00:42:44.801Z,96.08
2017-03-01T00:43:44.829Z,95.22
2017-03-01T00:44:44.842Z,95.98
2017-03-01T00:45:44.857Z,95.6
2017-03-01T00:46:44.877Z,95.22
2017-03-01T00:47:44.894Z,95.65
2017-03-01T00:48:44.926Z,95.65
2017-03-01T00:49:44.932Z,95.7
2017-03-01T00:50:44.949Z,95.89
2017-03-01T00:51:44.973Z,95.6
2017-03-01T00:52:44.998Z,95.98
2017-03-01T00:53:45.006Z,95.84
2017-03-01T00:54:59.552Z,96.03
2017-03-01T00:55:45.043Z,96.03
2017-03-01T00:56:45.060Z,95.93
2017-03-01T00:57:45.082Z,96.31
2017-03-01T00:58:45.102Z,96.31
2017-03-01T00:59:45.134Z,96.59
2017-03-01T01:00:45.134Z,96.5
2017-03-01T01:01:45.165Z,96.22
2017-03-01T01:02:45.185Z,96.5
2017-03-01T01:03:45.195Z,96.22
2017-03-01T01:04:45.210Z,96.22
2017-03-01T01:05:45.226Z,96.5
2017-03-01T01:06:45.246Z,97.17
2017-03-01T01:07:45.280Z,96.59
2017-03-01T01:08:45.283Z,96.69
2017-03-01T01:09:45.351Z,96.78
2017-03-01T01:10:59.847Z,96.41
2017-03-01T01:11:45.337Z,96.59
2017-03-01T01:12:45.364Z,97.45
2017-03-01T01:13:45.373Z,96.97
2017-03-01T01:16:45.430Z,97.26
2017-03-01T01:17:45.453Z,97.17
2017-03-01T01:18:45.474Z,96.69
2017-03-01T01:19:45.495Z,97.17
2017-03-01T01:20:45.513Z,96.97
2017-03-01T01:21:45.520Z,97.45
2017-03-01T01:22:45.537Z,97.36
2017-03-01T01:23:45.561Z,97.45
2017-03-01T01:25:45.593Z,97.92
2017-03-01T01:27:00.140Z,97.36
2017-03-01T01:27:45.644Z,98.11
2017-03-01T01:28:45.650Z,98.49
2017-03-01T01:29:45.668Z,98.11
2017-03-01T01:32:45.723Z,97.92
2017-03-01T01:33:45.739Z,98.21
2017-03-01T01:34:45.761Z,98.21
2017-03-01T01:35:45.788Z,97.45
2017-03-01T01:36:45.798Z,96.78
2017-03-01T01:37:45.825Z,96.78
2017-03-01T01:38:45.833Z,96.5
2017-03-01T01:39:45.849Z,96.69
2017-03-01T01:40:45.481Z,96.69
2017-03-01T01:42:00.415Z,96.31
2017-03-01T01:42:45.906Z,96.31
2017-03-01T01:43:45.922Z,96.5
2017-03-01T01:44:45.940Z,96.12
2017-03-01T01:45:45.958Z,96.41
2017-03-01T01:46:46.031Z,96.5
2017-03-01T01:47:46.000Z,96.41
2017-03-01T01:48:46.020Z,96.41
2017-03-01T01:49:46.038Z,96.69
2017-03-01T01:50:46.056Z,96.59
2017-03-01T01:51:46.070Z,96.31
2017-03-01T01:52:46.086Z,95.74
2017-03-01T01:53:46.105Z,96.03
2017-03-01T01:54:46.124Z,95.74
2017-03-01T01:55:46.140Z,95.46
2017-03-01T01:57:46.178Z,95.65
2017-03-01T01:58:46.195Z,95.46
2017-03-01T01:59:46.224Z,96.03
2017-03-01T02:00:46.233Z,95.84
2017-03-01T02:01:46.250Z,95.93
2017-03-01T02:02:46.270Z,96.03
2017-03-01T02:03:46.290Z,95.55
2017-03-01T02:04:46.305Z,95.84
2017-03-01T02:05:46.333Z,95.74
2017-03-01T02:06:46.340Z,95.93
2017-03-01T02:07:46.359Z,95.55
2017-03-01T02:08:46.404Z,95.55
2017-03-01T02:09:46.395Z,95.46
2017-03-01T02:10:46.415Z,95.65
2017-03-01T02:11:46.431Z,95.93
2017-03-01T02:12:46.063Z,96.12
2017-03-01T02:14:00.996Z,96.78
2017-03-01T02:14:46.484Z,96.69
2017-03-01T02:15:46.505Z,97.45
2017-03-01T02:16:46.522Z,96.69
2017-03-01T02:17:46.539Z,96.59
2017-03-01T02:19:46.582Z,98.02
2017-03-01T02:20:46.592Z,98.21
2017-03-01T02:21:46.913Z,98.3
2017-03-01T02:22:46.644Z,97.36
2017-03-01T02:23:46.647Z,98.21
2017-03-01T02:24:46.674Z,97.92
2017-03-01T02:25:46.684Z,98.02
2017-03-01T02:26:46.708Z,98.21
2017-03-01T02:27:46.720Z,98.49
2017-03-01T02:28:46.741Z,98.21
2017-03-01T02:30:01.286Z,97.92
2017-03-01T02:30:46.780Z,97.55
2017-03-01T02:31:46.806Z,97.64
2017-03-01T02:35:46.865Z,97.45
2017-03-01T02:36:46.883Z,97.36
2017-03-01T02:37:46.904Z,97.55
2017-03-01T02:38:46.928Z,97.07
2017-03-01T02:39:46.937Z,97.26
2017-03-01T02:40:46.955Z,96.22
2017-03-01T02:41:46.975Z,96.12
2017-03-01T02:42:46.990Z,95.65
2017-03-01T02:43:47.009Z,95.27
2017-03-01T02:44:47.026Z,95.17
2017-03-01T02:46:01.573Z,95.07
2017-03-01T02:46:47.063Z,94.42
2017-03-01T02:47:47.081Z,94.32
2017-03-01T02:48:47.100Z,94.32
2017-03-01T02:50:47.137Z,94.42
2017-03-01T02:51:47.154Z,93.75
2017-03-01T02:52:47.182Z,93.46
2017-03-01T02:53:47.189Z,93.65
2017-03-01T02:54:46.831Z,93.27
2017-03-01T02:55:47.241Z,92.99
2017-03-01T02:56:47.243Z,93.27
2017-03-01T02:57:47.277Z,93.08
2017-03-01T02:58:47.292Z,92.8
2017-03-01T02:59:47.297Z,92.33
2017-03-01T03:00:47.318Z,92.14
2017-03-01T03:02:01.861Z,92.23
2017-03-01T03:02:47.357Z,92.04
2017-03-01T03:03:47.369Z,92.33
2017-03-01T03:04:47.387Z,92.23
2017-03-01T03:05:47.405Z,92.14
2017-03-01T03:06:48.026Z,91.66
2017-03-01T03:07:47.443Z,92.14
2017-03-01T03:08:47.458Z,91.56
2017-03-01T03:09:47.480Z,91.28
2017-03-01T03:10:47.498Z,91
2017-03-01T03:11:47.525Z,91.28
2017-03-01T03:12:47.532Z,90.9
2017-03-01T03:13:47.558Z,90.81
2017-03-01T03:14:47.567Z,91.28
2017-03-01T03:15:47.586Z,90.71
2017-03-01T03:17:02.133Z,90.71
2017-03-01T03:17:47.621Z,90.71
2017-03-01T03:18:47.650Z,90.52
2017-03-01T03:20:47.676Z,89.86
2017-03-01T03:21:47.308Z,89.29
2017-03-01T03:22:47.710Z,89.76
2017-03-01T03:23:47.729Z,89.86
2017-03-01T03:24:47.758Z,89.48
2017-03-01T03:25:47.766Z,89.95
2017-03-01T03:26:47.786Z,89.86
2017-03-01T03:27:47.802Z,89.76
2017-03-01T03:28:47.824Z,89.29
2017-03-01T03:29:47.837Z,89.76
2017-03-01T03:30:47.887Z,89.29
2017-03-01T03:31:47.873Z,89.39
2017-03-01T03:32:47.900Z,89.39
2017-03-01T03:33:47.908Z,89.29
2017-03-01T03:34:47.927Z,89.39
2017-03-01T03:35:47.945Z,88.91
2017-03-01T03:36:47.961Z,89.39
2017-03-01T03:38:47.998Z,89
2017-03-01T03:39:48.019Z,89.86
2017-03-01T03:40:47.649Z,89.81
2017-03-01T03:41:48.052Z,89.81
2017-03-01T03:42:48.084Z,89.53
2017-03-01T03:43:48.090Z,90.29
2017-03-01T03:44:48.107Z,89.91
2017-03-01T03:45:48.125Z,90.57
2017-03-01T03:46:48.151Z,89.72
2017-03-01T03:47:48.161Z,89.91
2017-03-01T03:49:02.706Z,90.29
2017-03-01T03:49:48.197Z,89.72
2017-03-01T03:50:48.214Z,89.62
2017-03-01T03:51:48.232Z,90.48
2017-03-01T03:52:48.249Z,90.19
2017-03-01T03:53:48.268Z,90.57
2017-03-01T03:54:48.289Z,91.05
2017-03-01T03:55:48.306Z,90.57
2017-03-01T03:56:48.321Z,90.86
2017-03-01T03:57:48.343Z,90.86
2017-03-01T03:58:48.356Z,90.57
2017-03-01T03:59:48.378Z,90.48
2017-03-01T04:00:48.393Z,90.48
2017-03-01T04:01:48.411Z,90.38
2017-03-01T04:02:48.429Z,89.91
2017-03-01T04:03:48.446Z,90.57
2017-03-01T04:05:02.992Z,89.72
2017-03-01T04:06:48.510Z,90.29
2017-03-01T04:07:48.525Z,89.91
2017-03-01T04:08:48.535Z,90.1
2017-03-01T04:09:48.555Z,90.1
2017-03-01T04:10:48.577Z,89.81
2017-03-01T04:11:48.206Z,89.81
2017-03-01T04:12:48.606Z,89.81
2017-03-01T04:13:48.622Z,89.72
2017-03-01T04:14:48.641Z,89.81
2017-03-01T04:15:48.658Z,90.19
2017-03-01T04:16:48.677Z,89.91
2017-03-01T04:17:48.704Z,89.62
2017-03-01T04:18:48.723Z,89.72
2017-03-01T04:19:48.733Z,90
2017-03-01T04:21:03.276Z,88.87
2017-03-01T04:21:48.765Z,89.25
2017-03-01T04:22:48.784Z,89.34
2017-03-01T04:23:48.805Z,89.34
2017-03-01T04:24:48.818Z,89.53
2017-03-01T04:25:48.839Z,89.25
2017-03-01T04:26:48.855Z,89.91
2017-03-01T04:27:48.880Z,89.15
2017-03-01T04:28:48.895Z,89.25
2017-03-01T04:30:48.928Z,89.15
2017-03-01T04:31:48.956Z,89.62
2017-03-01T04:32:48.973Z,89.91
2017-03-01T04:33:49.343Z,89.25
2017-03-01T04:34:48.999Z,88.87
2017-03-01T04:35:49.014Z,89.43
2017-03-01T04:37:03.561Z,88.96
2017-03-01T04:37:49.080Z,89.72
2017-03-01T04:38:49.069Z,89.81
2017-03-01T04:39:49.084Z,89.34
2017-03-01T04:40:49.106Z,89.25
2017-03-01T04:41:49.121Z,89.81
2017-03-01T04:43:49.156Z,89.91
2017-03-01T04:44:49.175Z,90.38
2017-03-01T04:45:49.192Z,90.1
2017-03-01T04:46:49.209Z,89.53
2017-03-01T04:47:49.536Z,90
2017-03-01T04:48:49.246Z,90.1
2017-03-01T04:49:49.274Z,90.81
2017-03-01T04:50:49.288Z,90.62
2017-03-01T04:52:03.827Z,90.53
2017-03-01T04:52:49.345Z,90.62
2017-03-01T04:53:49.332Z,90.43
2017-03-01T04:54:49.351Z,91
2017-03-01T04:55:49.385Z,91.19
2017-03-01T04:56:49.389Z,91.09
2017-03-01T04:57:49.406Z,90.81
2017-03-01T04:58:49.424Z,90.81
2017-03-01T04:59:49.452Z,90.72
2017-03-01T05:00:49.457Z,91.09
2017-03-01T05:01:49.487Z,91.09
2017-03-01T05:02:49.505Z,91.19
2017-03-01T05:03:49.509Z,91.47
2017-03-01T05:04:49.528Z,91.38
2017-03-01T05:05:49.548Z,91
2017-03-01T05:06:49.565Z,91.47
2017-03-01T05:07:49.586Z,91.09
2017-03-01T05:08:49.597Z,91.47
2017-03-01T05:09:49.614Z,91.57
2017-03-01T05:10:49.636Z,91.66
2017-03-01T05:11:49.661Z,91.57
2017-03-01T05:13:49.699Z,91.81
2017-03-01T05:14:49.702Z,92.47
2017-03-01T05:15:49.719Z,92.28
2017-03-01T05:16:49.742Z,92.14
2017-03-01T05:17:49.755Z,92.23
2017-03-01T05:18:49.772Z,92.33
2017-03-01T05:20:49.809Z,92.52
2017-03-01T05:21:49.822Z,92.42
2017-03-01T05:24:04.386Z,92.04
2017-03-01T05:24:49.883Z,92.33
2017-03-01T05:25:49.895Z,92.52
2017-03-01T05:26:49.909Z,92.33
2017-03-01T05:27:49.927Z,92.52
2017-03-01T05:29:49.963Z,92.28
2017-03-01T05:30:49.988Z,92.47
2017-03-01T05:31:49.996Z,92.57
2017-03-01T05:32:50.015Z,93.13
2017-03-01T05:33:50.030Z,92.94
2017-03-01T05:34:50.054Z,93.42
2017-03-01T05:35:50.066Z,93.7
2017-03-01T05:36:50.087Z,93.61
2017-03-01T05:37:50.100Z,93.42
2017-03-01T05:38:50.117Z,93.61
2017-03-01T05:40:04.663Z,93.61
2017-03-01T05:40:50.152Z,94.27
2017-03-01T05:41:50.169Z,93.8
2017-03-01T05:42:50.186Z,94.27
2017-03-01T05:43:50.215Z,93.7
2017-03-01T05:44:50.219Z,93.8
2017-03-01T05:45:50.237Z,93.7
2017-03-01T05:46:50.255Z,93.7
2017-03-01T05:48:50.298Z,94.37
2017-03-01T05:50:50.321Z,94.08
2017-03-01T05:51:50.343Z,94.08
2017-03-01T05:52:50.362Z,94.37
2017-03-01T05:53:50.374Z,93.8
2017-03-01T05:54:50.390Z,93.7
2017-03-01T05:56:04.935Z,93.99
2017-03-01T05:56:50.425Z,93.42
2017-03-01T05:57:50.444Z,93.51
2017-03-01T05:58:50.472Z,93.42
2017-03-01T05:59:50.476Z,94.27
2017-03-01T06:00:50.500Z,93.8
2017-03-01T06:01:50.511Z,93.65
2017-03-01T06:02:50.529Z,93.56
2017-03-01T06:03:50.546Z,93.27
2017-03-01T06:04:50.564Z,93.08
2017-03-01T06:05:50.580Z,92.9
2017-03-01T06:06:50.597Z,92.04
2017-03-01T06:07:50.621Z,92.33
2017-03-01T06:08:50.634Z,91.95
2017-03-01T06:09:50.262Z,91.95
2017-03-01T06:10:50.671Z,92.14
2017-03-01T06:12:05.212Z,91.95
2017-03-01T06:12:50.314Z,91.85
2017-03-01T06:13:50.335Z,92.04
2017-03-01T06:14:50.358Z,91.85
2017-03-01T06:15:50.365Z,91.57
2017-03-01T06:16:50.383Z,91.47
2017-03-01T06:17:50.400Z,91.38
2017-03-01T06:18:50.805Z,91.57
2017-03-01T06:19:50.826Z,91.76
2017-03-01T06:20:50.844Z,91.19
2017-03-01T06:21:50.873Z,91.09
2017-03-01T06:22:50.492Z,91.09
2017-03-01T06:23:50.507Z,90.91
2017-03-01T06:24:50.912Z,90.81
2017-03-01T06:25:50.545Z,90.53
2017-03-01T06:27:05.475Z,91.28
2017-03-01T06:27:50.964Z,90.81
2017-03-01T06:28:50.983Z,90.62
2017-03-01T06:29:50.614Z,90.34
2017-03-01T06:30:50.632Z,90.62
2017-03-01T06:31:50.650Z,90.62
2017-03-01T06:32:51.062Z,90.43
2017-03-01T06:33:51.071Z,90.15
2017-03-01T06:34:51.095Z,90.05
2017-03-01T06:35:51.108Z,90.38
2017-03-01T06:36:50.740Z,89.72
2017-03-01T06:37:50.759Z,89.62
2017-03-01T06:38:51.164Z,89.15
2017-03-01T06:39:51.189Z,89.15
2017-03-01T06:40:51.208Z,88.96
2017-03-01T06:41:51.223Z,88.2
2017-03-01T06:42:51.243Z,88.96
2017-03-01T06:43:51.263Z,89.06
2017-03-01T06:44:51.283Z,88.87
2017-03-01T06:45:51.313Z,89.06
2017-03-01T06:46:51.322Z,88.01
2017-03-01T06:47:51.342Z,88.2
2017-03-01T06:48:51.363Z,88.96
2017-03-01T06:49:51.382Z,88.77
2017-03-01T06:50:51.403Z,89.15
2017-03-01T06:52:51.447Z,88.87
2017-03-01T06:53:51.073Z,88.87
2017-03-01T06:54:51.479Z,88.87
2017-03-01T06:55:51.499Z,89.15
2017-03-01T06:56:51.518Z,89.25
2017-03-01T06:57:51.550Z,89.25
2017-03-01T06:59:06.085Z,89.62
2017-03-01T06:59:51.577Z,89.15
2017-03-01T07:00:51.595Z,88.96
2017-03-01T07:01:51.614Z,89.53
2017-03-01T07:02:51.632Z,89.25
2017-03-01T07:04:51.674Z,89.81
2017-03-01T07:05:51.689Z,89.81
2017-03-01T07:06:51.716Z,89.72
2017-03-01T07:07:51.725Z,89.91
2017-03-01T07:08:51.746Z,89.81
2017-03-01T07:09:51.786Z,90.29
2017-03-01T07:10:51.393Z,90.76
2017-03-01T07:11:51.412Z,90.29
2017-03-01T07:12:51.429Z,90.1
2017-03-01T07:13:51.842Z,90.67
2017-03-01T07:15:06.383Z,90.76
2017-03-01T07:15:51.884Z,90.67
2017-03-01T07:16:51.889Z,90.67
2017-03-01T07:17:51.910Z,90.95
2017-03-01T07:18:52.144Z,90.86
2017-03-01T07:19:51.950Z,90.86
2017-03-01T07:21:51.982Z,91.24
2017-03-01T07:22:52.011Z,91.33
2017-03-01T07:23:52.024Z,91.33
2017-03-01T07:24:52.036Z,91.14
2017-03-01T07:25:52.054Z,91
2017-03-01T07:26:52.087Z,91.71
2017-03-01T07:27:52.089Z,91.61
2017-03-01T07:28:52.119Z,91.47
2017-03-01T07:29:52.136Z,91.42
2017-03-01T07:31:06.672Z,91.99
2017-03-01T07:31:52.163Z,92.18
2017-03-01T07:32:52.180Z,91.71
2017-03-01T07:33:51.815Z,91.8
2017-03-01T07:34:51.846Z,91.24
2017-03-01T07:35:52.237Z,91.33
2017-03-01T07:36:52.254Z,90.48
2017-03-01T07:37:52.280Z,91.09
2017-03-01T07:38:52.296Z,90.24
2017-03-01T07:39:52.309Z,90.33
2017-03-01T07:40:52.328Z,90.62
2017-03-01T07:41:52.346Z,90.71
2017-03-01T07:42:52.665Z,90.62
2017-03-01T07:43:52.383Z,90.14
2017-03-01T07:44:52.400Z,89.48
2017-03-01T07:45:52.419Z,89.1
2017-03-01T07:47:06.967Z,89
2017-03-01T07:47:52.457Z,88.86
2017-03-01T07:49:52.492Z,88.39
2017-03-01T07:50:52.513Z,88.01
2017-03-01T07:52:52.563Z,89.48
2017-03-01T07:53:52.570Z,89.1
2017-03-01T07:54:52.214Z,89.2
2017-03-01T07:55:52.227Z,89.39
2017-03-01T07:56:52.626Z,89.29
2017-03-01T07:57:52.645Z,88.91
2017-03-01T07:58:52.663Z,89.1
2017-03-01T07:59:52.694Z,89.48
2017-03-01T08:00:52.704Z,89.43
2017-03-01T08:02:07.249Z,88.01
2017-03-01T08:02:52.739Z,87.57
2017-03-01T08:05:52.810Z,86.15
2017-03-01T08:06:52.821Z,85.77
2017-03-01T08:07:52.840Z,86.34
2017-03-01T08:08:52.862Z,85.68
2017-03-01T08:09:52.495Z,85.49
2017-03-01T08:10:52.516Z,85.49
2017-03-01T08:11:52.536Z,85.68
2017-03-01T08:12:52.950Z,85.96
2017-03-01T08:13:53.270Z,85.77
2017-03-01T08:14:52.992Z,85.68
2017-03-01T08:15:53.007Z,86.24
2017-03-01T08:16:53.020Z,86.53
2017-03-01T08:17:53.048Z,86.82
2017-03-01T08:18:53.068Z,85.86
2017-03-01T08:19:53.082Z,85.39
2017-03-01T08:20:53.110Z,85.11
2017-03-01T08:21:53.126Z,84.72
2017-03-01T08:22:53.147Z,84.48
2017-03-01T08:23:53.168Z,84.2
2017-03-01T08:24:53.188Z,83.34
2017-03-01T08:25:53.211Z,83.25
2017-03-01T08:26:53.231Z,83
2017-03-01T08:27:53.265Z,82.24
2017-03-01T08:28:53.277Z,81.86
2017-03-01T08:29:53.300Z,82.15
2017-03-01T08:30:52.930Z,81.58
2017-03-01T08:31:53.340Z,81.67
2017-03-01T08:32:53.362Z,81.38
2017-03-01T08:34:07.913Z,81.77
2017-03-01T08:34:53.408Z,81.86
2017-03-01T08:35:53.428Z,82.2
2017-03-01T08:36:53.452Z,82.29
2017-03-01T08:37:53.478Z,82.34
2017-03-01T08:38:53.509Z,82.24
2017-03-01T08:39:53.518Z,82.1
2017-03-01T08:40:53.541Z,82.15
2017-03-01T08:41:53.562Z,82.29
2017-03-01T08:42:53.585Z,81.77
2017-03-01T08:43:53.220Z,81.29
2017-03-01T08:44:53.629Z,81.38
2017-03-01T08:45:53.652Z,81.48
2017-03-01T08:46:53.690Z,81.2
2017-03-01T08:47:53.310Z,80.63
2017-03-01T08:48:53.721Z,80.82
2017-03-01T08:50:08.273Z,81.29
2017-03-01T08:50:53.777Z,80.72
2017-03-01T08:51:53.790Z,80.72
2017-03-01T08:52:53.861Z,80.82
2017-03-01T08:53:53.839Z,80.91
2017-03-01T08:55:53.895Z,80.63
2017-03-01T08:56:53.517Z,80.34
2017-03-01T08:57:53.936Z,79.58
2017-03-01T08:58:53.952Z,79.49
2017-03-01T08:59:53.981Z,79.86
2017-03-01T09:00:53.995Z,80.82
2017-03-01T09:01:54.034Z,80.72
2017-03-01T09:02:54.044Z,80.53
2017-03-01T09:03:53.677Z,81.1
2017-03-01T09:04:54.091Z,80.63
2017-03-01T09:06:08.637Z,80.53
2017-03-01T09:06:54.131Z,80.05
2017-03-01T09:07:54.165Z,80.05
2017-03-01T09:08:54.177Z,80.05
2017-03-01T09:09:54.197Z,79.68
2017-03-01T09:10:54.223Z,78.82
2017-03-01T09:11:54.258Z,79.01
2017-03-01T09:12:54.270Z,78.82
2017-03-01T09:13:54.294Z,78.44
2017-03-01T09:14:53.928Z,79.01
2017-03-01T09:15:54.337Z,78.72
2017-03-01T09:16:54.367Z,79.39
2017-03-01T09:17:54.382Z,78.91
2017-03-01T09:18:54.404Z,79.3
2017-03-01T09:19:54.444Z,78.29
2017-03-01T09:20:54.452Z,78.1
2017-03-01T09:22:09.003Z,79.01
2017-03-01T09:22:54.497Z,78.16
2017-03-01T09:23:54.532Z,77.72
2017-03-01T09:24:54.543Z,77.72
2017-03-01T09:25:54.570Z,77.53
2017-03-01T09:26:54.599Z,77.72
2017-03-01T09:27:54.610Z,77.91
2017-03-01T09:28:54.633Z,77.53
2017-03-01T09:29:54.656Z,77.24
2017-03-01T09:30:54.692Z,76.67
2017-03-01T09:31:54.709Z,76.96
2017-03-01T09:32:54.737Z,77.15
2017-03-01T09:33:54.766Z,77.05
2017-03-01T09:34:54.778Z,76.76
2017-03-01T09:35:54.799Z,75.81
2017-03-01T09:37:09.350Z,75.24
2017-03-01T09:37:54.843Z,75.43
2017-03-01T09:38:54.882Z,76.29
2017-03-01T09:39:54.888Z,76.1
2017-03-01T09:40:54.923Z,76.67
2017-03-01T09:41:54.935Z,76.96
2017-03-01T09:42:54.962Z,75.91
2017-03-01T09:43:54.982Z,75.4
2017-03-01T09:44:55.005Z,75.3
2017-03-01T09:45:55.025Z,76.54
2017-03-01T09:46:55.049Z,77.11
2017-03-01T09:47:55.083Z,76.2
2017-03-01T09:48:55.097Z,76.1
2017-03-01T09:49:55.118Z,76.01
2017-03-01T09:50:55.143Z,76.86
2017-03-01T09:51:55.467Z,76.2
2017-03-01T09:52:55.189Z,75.24
2017-03-01T09:53:55.209Z,76.1
2017-03-01T09:54:55.234Z,76.67
2017-03-01T09:55:55.255Z,76.01
2017-03-01T09:56:55.292Z,75.53
2017-03-01T09:57:55.310Z,74.39
2017-03-01T09:58:55.375Z,74.29
2017-03-01T09:59:55.349Z,74.87
2017-03-01T10:00:55.372Z,74.67
2017-03-01T10:01:55.408Z,74.48
2017-03-01T10:02:55.425Z,74.99
2017-03-01T10:03:55.440Z,74.33
2017-03-01T10:04:55.463Z,74.52
2017-03-01T10:05:55.486Z,74.04
2017-03-01T10:06:55.516Z,73.8
2017-03-01T10:07:55.532Z,73.22
2017-03-01T10:09:10.083Z,73.22
2017-03-01T10:09:55.579Z,72.85
2017-03-01T10:10:55.601Z,73.03
2017-03-01T10:11:55.624Z,73.13
2017-03-01T10:12:55.646Z,72.46
2017-03-01T10:13:55.676Z,72.75
2017-03-01T10:14:55.305Z,71.7
2017-03-01T10:15:55.731Z,71.22
2017-03-01T10:16:55.753Z,71.13
2017-03-01T10:17:55.761Z,71.57
2017-03-01T10:18:55.784Z,72.81
2017-03-01T10:19:55.814Z,73.57
2017-03-01T10:20:55.833Z,73.76
2017-03-01T10:21:55.857Z,74.14
2017-03-01T10:22:55.488Z,74.14
2017-03-01T10:23:55.511Z,74.99
2017-03-01T10:25:10.451Z,74.33
2017-03-01T10:25:55.557Z,74.24
2017-03-01T10:26:55.584Z,74.14
2017-03-01T10:27:55.989Z,74.33
2017-03-01T10:28:55.640Z,74.62
2017-03-01T10:29:55.652Z,74.8
2017-03-01T10:30:56.056Z,74.8
2017-03-01T10:31:56.081Z,74.33
2017-03-01T10:33:56.128Z,75.47
2017-03-01T10:34:56.147Z,74.99
2017-03-01T10:35:56.171Z,74.9
2017-03-01T10:36:56.211Z,74.62
2017-03-01T10:37:56.215Z,74.52
2017-03-01T10:38:56.236Z,74.9
2017-03-01T10:39:55.871Z,74.9
2017-03-01T10:41:10.809Z,74.8
2017-03-01T10:41:55.925Z,74.8
2017-03-01T10:42:56.328Z,74.62
2017-03-01T10:43:55.964Z,74.27
2017-03-01T10:44:55.982Z,74.04
2017-03-01T10:45:56.398Z,73.22
2017-03-01T10:46:56.417Z,73.28
2017-03-01T10:47:56.050Z,73
2017-03-01T10:48:56.458Z,72.52
2017-03-01T10:49:56.480Z,73.1
2017-03-01T10:50:56.504Z,72.71
2017-03-01T10:51:56.525Z,73
2017-03-01T10:52:56.163Z,73.03
2017-03-01T10:53:56.570Z,71.89
2017-03-01T10:54:56.593Z,72.46
2017-03-01T10:55:56.229Z,72.75
2017-03-01T10:57:11.166Z,71.32
2017-03-01T10:57:56.274Z,71.22
2017-03-01T10:58:56.683Z,71.07
2017-03-01T10:59:56.701Z,71.55
2017-03-01T11:00:56.339Z,71.45
2017-03-01T11:02:56.382Z,72.21
2017-03-01T11:03:56.797Z,70.97
2017-03-01T11:04:56.819Z,70.78
2017-03-01T11:05:56.838Z,69.54
2017-03-01T11:06:56.471Z,69.74
2017-03-01T11:07:56.879Z,68.69
2017-03-01T11:08:56.903Z,68.98
2017-03-01T11:09:56.923Z,69.07
2017-03-01T11:10:56.953Z,68.98
2017-03-01T11:12:11.499Z,69.26
2017-03-01T11:12:56.992Z,70.02
2017-03-01T11:13:56.630Z,69.74
2017-03-01T11:14:57.053Z,69.64
2017-03-01T11:15:57.062Z,69.35
2017-03-01T11:16:56.695Z,68.98
2017-03-01T11:17:57.113Z,69.17
2017-03-01T11:18:57.127Z,68.98
2017-03-01T11:19:57.149Z,69.07
2017-03-01T11:20:57.170Z,69.29
2017-03-01T11:21:57.192Z,68.63
2017-03-01T11:22:57.222Z,68.63
2017-03-01T11:23:57.237Z,69.2
2017-03-01T11:24:57.260Z,68.53
2017-03-01T11:25:57.284Z,68.91
2017-03-01T11:26:57.304Z,69.64
2017-03-01T11:27:57.327Z,69.26
2017-03-01T11:28:57.364Z,70.02
2017-03-01T11:29:57.372Z,69.83
2017-03-01T11:30:57.392Z,69.29
2017-03-01T11:31:57.425Z,68.91
2017-03-01T11:33:57.724Z,69.1
2017-03-01T11:34:57.483Z,69.29
2017-03-01T11:35:57.505Z,68.44
2017-03-01T11:36:57.528Z,69.01
2017-03-01T11:37:57.556Z,68.91
2017-03-01T11:38:57.594Z,68.82
2017-03-01T11:40:57.616Z,68.05
2017-03-01T11:41:57.639Z,68.63
2017-03-01T11:42:57.666Z,68.63
2017-03-01T11:44:12.213Z,68.72
2017-03-01T11:44:57.715Z,68.72
2017-03-01T11:45:57.739Z,68.34
2017-03-01T11:46:57.767Z,69.58
2017-03-01T11:47:57.783Z,70.12
2017-03-01T11:48:57.796Z,70.88
2017-03-01T11:49:57.828Z,71.36
2017-03-01T11:50:57.838Z,71.93
2017-03-01T11:51:57.859Z,72.6
2017-03-01T11:52:57.884Z,72.78
2017-03-01T11:53:57.905Z,72.69
2017-03-01T11:54:57.927Z,72.5
2017-03-01T11:55:57.951Z,73.17
2017-03-01T11:56:57.971Z,73.07
2017-03-01T11:57:58.004Z,73.7
2017-03-01T11:58:58.017Z,73.7
2017-03-01T12:00:12.575Z,74.94
2017-03-01T12:00:58.058Z,76.18
2017-03-01T12:01:58.094Z,76.18
2017-03-01T12:02:58.102Z,77.95
2017-03-01T12:03:58.130Z,79.75
2017-03-01T12:04:58.155Z,80.42
2017-03-01T12:05:58.169Z,80.8
2017-03-01T12:06:58.189Z,81.28
2017-03-01T12:07:58.211Z,81.56
2017-03-01T12:08:58.232Z,81.18
2017-03-01T12:09:58.253Z,82.23
2017-03-01T12:10:58.275Z,81.28
2017-03-01T12:11:58.299Z,81.28
2017-03-01T12:12:57.931Z,81.56
2017-03-01T12:13:58.351Z,82.14
2017-03-01T12:14:58.362Z,83.28
2017-03-01T12:16:12.911Z,83.75
2017-03-01T12:16:58.402Z,85.28
2017-03-01T12:17:58.426Z,85.47
2017-03-01T12:18:58.452Z,85.56
2017-03-01T12:19:58.467Z,85.18
2017-03-01T12:20:58.491Z,85.85
2017-03-01T12:21:58.518Z,86.61
2017-03-01T12:22:58.534Z,87.27
2017-03-01T12:23:58.553Z,87.85
2017-03-01T12:24:58.576Z,88.32
2017-03-01T12:25:58.607Z,87.75
2017-03-01T12:26:58.627Z,87.85
2017-03-01T12:27:58.651Z,87.42
2017-03-01T12:28:58.661Z,88.09
2017-03-01T12:29:58.682Z,87.99
2017-03-01T12:30:58.705Z,88.46
2017-03-01T12:32:13.252Z,88.09
2017-03-01T12:32:58.744Z,88.37
2017-03-01T12:33:58.768Z,88.75
2017-03-01T12:34:58.797Z,88.66
2017-03-01T12:35:58.809Z,88.46
2017-03-01T12:36:58.832Z,88.09
2017-03-01T12:38:58.872Z,87.61
2017-03-01T12:39:58.895Z,87.61
2017-03-01T12:40:58.914Z,86.94
2017-03-01T12:41:58.934Z,87.13
2017-03-01T12:42:58.955Z,87.27
2017-03-01T12:43:58.977Z,86.76
2017-03-01T12:44:59.003Z,86.18
2017-03-01T12:45:59.019Z,86.66
2017-03-01T12:47:13.569Z,86.28
2017-03-01T12:47:59.064Z,86.09
2017-03-01T12:49:59.102Z,85.85
2017-03-01T12:51:59.158Z,85.28
2017-03-01T12:52:59.195Z,85.28
2017-03-01T12:53:59.188Z,84.89
2017-03-01T12:54:59.211Z,84.23
2017-03-01T12:55:59.229Z,84.8
2017-03-01T12:56:59.251Z,84.89
2017-03-01T12:57:59.285Z,84.8
2017-03-01T12:58:59.295Z,84.89
2017-03-01T12:59:59.314Z,84.8
2017-03-01T13:00:59.335Z,84.13
2017-03-01T13:01:59.357Z,84.33
2017-03-01T13:02:59.380Z,84.33
2017-03-01T13:03:59.407Z,85.37
2017-03-01T13:04:59.425Z,85.18
2017-03-01T13:05:59.441Z,85.66
2017-03-01T13:06:59.463Z,86.04
2017-03-01T13:07:59.095Z,86.04
2017-03-01T13:08:59.521Z,87.23
2017-03-01T13:09:59.541Z,87.8
2017-03-01T13:10:59.546Z,88.56
2017-03-01T13:11:59.570Z,88.85
2017-03-01T13:12:59.600Z,89.32
2017-03-01T13:13:59.610Z,90.08
2017-03-01T13:14:59.628Z,89.8
2017-03-01T13:15:59.662Z,89.7
2017-03-01T13:16:59.671Z,90.75
2017-03-01T13:17:59.704Z,91.03
2017-03-01T13:19:14.241Z,90.94
2017-03-01T13:19:59.738Z,91.61
2017-03-01T13:20:59.754Z,91.7
2017-03-01T13:21:59.778Z,91.8
2017-03-01T13:22:59.809Z,92.18
2017-03-01T13:23:59.826Z,92.46
2017-03-01T13:25:00.350Z,92.18
2017-03-01T13:25:59.859Z,93.08
2017-03-01T13:26:59.895Z,92.8
2017-03-01T13:27:59.898Z,93.27
2017-03-01T13:28:59.925Z,93.94
2017-03-01T13:29:59.953Z,93.37
2017-03-01T13:30:59.960Z,93.65
2017-03-01T13:31:59.982Z,94.13
2017-03-01T13:33:00.002Z,94.7
2017-03-01T13:34:00.024Z,94.51
2017-03-01T13:35:14.572Z,95.08
2017-03-01T13:36:00.068Z,95.17
2017-03-01T13:37:00.084Z,94.7
2017-03-01T13:38:00.103Z,94.89